Time;durP1;ratioP1;P1;durP2;ratioP2;P2;SDS_P1;SDS_P2;PMS_P1;PMS_P2;Temp;Humidity;BMP_temperature;BMP_pressure;BME280_temperature;BME280_humidity;BME280_pressure;Samples;Min_cycle;Max_cycle;Signal;HPM_P1;HPM_P2
2022/12/12 00:02:12;;;;;;;45.60;22.50;;;1.70;1.00;;;;;;5007901;28;20286;-71
2022/12/12 00:04:38;;;;;;;46.40;22.27;;;1.70;1.00;;;;;;5009399;28;20237;-71
2022/12/12 00:07:03;;;;;;;42.17;22.03;;;1.80;1.00;;;;;;5011078;28;20193;-73
2022/12/12 00:09:29;;;;;;;42.43;22.03;;;1.70;1.00;;;;;;5011934;28;20687;-71
2022/12/12 00:11:54;;;;;;;44.37;21.90;;;1.70;1.00;;;;;;5013378;28;20205;-73
2022/12/12 00:14:20;;;;;;;43.27;22.40;;;1.60;1.00;;;;;;5009859;28;20190;-71
2022/12/12 00:16:45;;;;;;;40.17;21.83;;;1.60;1.00;;;;;;5012879;28;20265;-71
2022/12/12 00:19:11;;;;;;;46.43;23.70;;;1.60;1.00;;;;;;5013931;28;20265;-74
2022/12/12 00:21:37;;;;;;;44.17;22.60;;;1.50;1.00;;;;;;5011169;28;20233;-72
2022/12/12 00:24:03;;;;;;;46.87;23.70;;;1.50;1.00;;;;;;5013868;28;20201;-74
2022/12/12 00:26:31;;;;;;;46.50;23.23;;;1.50;1.00;;;;;;5012561;28;20939;-71
2022/12/12 00:28:58;;;;;;;41.03;22.03;;;1.50;1.00;;;;;;5005703;28;20216;-73
2022/12/12 00:31:24;;;;;;;45.13;23.10;;;1.40;1.00;;;;;;5011263;28;20537;-71
2022/12/12 00:33:50;;;;;;;46.60;22.40;;;1.40;1.00;;;;;;5029041;23;20989;-72
2022/12/12 00:36:18;;;;;;;44.53;22.47;;;1.20;1.00;;;;;;5011799;28;20185;-73
2022/12/12 00:38:44;;;;;;;46.67;22.70;;;1.10;1.00;;;;;;5012754;28;20183;-72
2022/12/12 00:41:10;;;;;;;46.50;22.70;;;1.00;1.00;;;;;;5006677;28;20447;-72
2022/12/12 00:43:36;;;;;;;48.77;23.70;;;0.90;1.00;;;;;;5016974;28;20217;-72
2022/12/12 00:46:02;;;;;;;52.20;23.80;;;0.80;1.00;;;;;;5011019;28;20468;-73
2022/12/12 00:48:28;;;;;;;49.33;23.00;;;0.70;1.00;;;;;;5012578;28;20803;-72
2022/12/12 00:50:54;;;;;;;46.23;22.80;;;0.60;1.00;;;;;;5011336;28;20521;-71
2022/12/12 00:53:20;;;;;;;49.67;22.90;;;0.50;1.60;;;;;;5013373;28;20229;-72
2022/12/12 00:55:54;;;;;;;49.07;23.67;;;0.50;3.60;;;;;;5012293;28;20491;-70
2022/12/12 00:58:19;;;;;;;48.27;23.10;;;0.50;2.70;;;;;;5010839;28;20468;-72
2022/12/12 01:00:45;;;;;;;51.97;22.73;;;0.50;2.60;;;;;;5011418;28;20556;-72
2022/12/12 01:03:10;;;;;;;47.43;23.53;;;0.40;3.30;;;;;;5010861;28;20541;-72
2022/12/12 01:05:36;;;;;;;42.70;21.50;;;0.30;3.30;;;;;;5011935;28;20568;-72
2022/12/12 01:08:01;;;;;;;44.43;22.13;;;0.30;3.70;;;;;;5012147;28;20181;-73
2022/12/12 01:10:27;;;;;;;46.30;23.33;;;0.30;4.30;;;;;;5013050;28;20205;-72
2022/12/12 01:12:52;;;;;;;51.90;22.83;;;0.20;5.50;;;;;;5017852;28;20194;-72
2022/12/12 01:15:18;;;;;;;49.80;23.40;;;0.20;6.50;;;;;;5012476;28;20178;-72
2022/12/12 01:17:43;;;;;;;49.97;23.00;;;0.20;6.40;;;;;;5009747;28;20179;-72
2022/12/12 01:20:19;;;;;;;44.17;21.73;;;0.40;8.00;;;;;;5011965;28;20179;-72
2022/12/12 01:22:45;;;;;;;50.60;23.93;;;0.10;8.40;;;;;;5010178;28;20268;-72
2022/12/12 01:25:13;;;;;;;54.63;24.77;;;0.10;11.00;;;;;;5010139;28;20992;-72
2022/12/12 01:27:39;;;;;;;44.43;23.10;;;0.10;10.80;;;;;;5012357;28;20198;-72
2022/12/12 01:30:05;;;;;;;49.27;24.47;;;0.10;10.40;;;;;;5001238;28;20464;-72
2022/12/12 01:32:30;;;;;;;50.10;23.40;;;0.00;10.50;;;;;;5010057;28;20206;-72
2022/12/12 01:34:56;;;;;;;45.53;23.03;;;0.00;10.50;;;;;;5023561;28;20429;-72
2022/12/12 01:37:22;;;;;;;47.00;22.53;;;0.00;10.90;;;;;;5010978;28;20190;-71
2022/12/12 01:39:48;;;;;;;44.40;22.10;;;-0.10;10.50;;;;;;5010560;28;20175;-71
2022/12/12 01:42:16;;;;;;;45.20;22.00;;;-0.10;10.20;;;;;;5009641;28;20183;-73
2022/12/12 01:44:52;;;;;;;45.93;20.93;;;-0.10;10.40;;;;;;5009479;28;20581;-72
2022/12/12 01:47:20;;;;;;;43.00;20.60;;;-0.20;10.40;;;;;;5010782;28;20471;-71
2022/12/12 01:49:54;;;;;;;45.73;21.10;;;-0.20;9.00;;;;;;5012031;28;20468;-73
2022/12/12 01:52:26;;;;;;;44.17;21.00;;;-0.20;9.30;;;;;;5009708;28;20448;-73
2022/12/12 01:54:55;;;;;;;43.00;21.13;;;-0.20;9.00;;;;;;5011063;28;20449;-72
2022/12/12 01:57:28;;;;;;;42.20;20.87;;;-0.20;8.60;;;;;;5011825;28;20414;-72
2022/12/12 01:59:53;;;;;;;42.40;21.87;;;-0.20;8.00;;;;;;5010299;28;20438;-72
2022/12/12 02:02:19;;;;;;;43.67;22.10;;;-0.20;7.40;;;;;;5009032;28;20450;-71
2022/12/12 02:04:45;;;;;;;45.13;20.20;;;-0.30;7.70;;;;;;5010343;28;20569;-72
2022/12/12 02:07:11;;;;;;;45.03;21.17;;;-0.30;7.20;;;;;;5010077;28;20177;-71
2022/12/12 02:09:37;;;;;;;40.50;20.63;;;-0.30;7.20;;;;;;5008161;28;20557;-72
2022/12/12 02:12:03;;;;;;;40.20;20.30;;;-0.40;6.80;;;;;;5011134;28;20431;-71
2022/12/12 02:14:32;;;;;;;44.17;21.00;;;-0.40;7.50;;;;;;5009431;28;20456;-72
2022/12/12 02:17:29;;;;;;;42.30;20.67;;;-0.50;6.90;;;;;;5008960;28;20438;-72
2022/12/12 02:20:19;;;;;;;45.77;22.63;;;-0.50;6.50;;;;;;5010011;28;20473;-72
2022/12/12 02:23:17;;;;;;;45.00;21.77;;;-0.60;6.70;;;;;;5010282;28;20441;-71
2022/12/12 02:25:51;;;;;;;47.13;19.77;;;-0.70;6.60;;;;;;5009466;28;20457;-72
2022/12/12 02:28:48;;;;;;;46.63;21.63;;;-0.70;7.40;;;;;;5004201;28;20809;-72
2022/12/12 02:31:22;;;;;;;38.10;19.07;;;-0.80;6.90;;;;;;5003415;28;20437;-71
2022/12/12 02:34:20;;;;;;;44.70;20.67;;;-0.90;8.20;;;;;;5010682;28;20459;-72
2022/12/12 02:36:55;;;;;;;44.17;21.77;;;-0.90;10.90;;;;;;5009601;28;20485;-72
2022/12/12 02:39:43;;;;;;;42.93;20.47;;;-0.70;11.50;;;;;;5011221;28;20413;-72
2022/12/12 02:42:39;;;;;;;40.97;19.47;;;-1.00;12.10;;;;;;5008786;28;20441;-69
2022/12/12 02:45:31;;;;;;;49.07;22.20;;;-1.10;10.20;;;;;;5010239;28;20460;-71
2022/12/12 02:48:04;;;;;;;45.00;21.67;;;-1.10;10.70;;;;;;5002369;28;20445;-72
2022/12/12 02:50:31;;;;;;;47.23;20.93;;;-0.80;12.60;;;;;;5008549;28;20421;-72
2022/12/12 02:52:59;;;;;;;48.83;20.60;;;-1.20;13.50;;;;;;5006178;28;20461;-71
2022/12/12 02:55:24;;;;;;;44.67;20.30;;;-1.30;14.30;;;;;;5011161;28;21070;-72
2022/12/12 02:57:52;;;;;;;45.63;21.30;;;-1.10;14.10;;;;;;5008055;28;20449;-72
2022/12/12 03:00:19;;;;;;;42.33;20.40;;;-1.20;14.80;;;;;;5006109;28;20189;-70
2022/12/12 03:09:34;;;;;;;43.60;20.20;;;-1.30;13.60;;;;;;5004118;28;20529;-72
2022/12/12 03:12:03;;;;;;;46.77;22.33;;;-1.30;13.60;;;;;;5011715;28;20442;-72
2022/12/12 03:14:37;;;;;;;48.83;21.43;;;-1.20;15.30;;;;;;5008946;28;20440;-72
2022/12/12 03:17:22;;;;;;;48.67;21.60;;;-1.30;14.90;;;;;;5003160;28;20434;-73
2022/12/12 03:20:02;;;;;;;46.93;20.43;;;-1.30;14.10;;;;;;5010510;28;20441;-71
2022/12/12 03:22:34;;;;;;;42.00;20.87;;;-1.30;14.70;;;;;;5008758;28;20467;-72
2022/12/12 03:25:02;;;;;;;39.40;19.23;;;-1.20;15.20;;;;;;4997595;28;20457;-73
2022/12/12 03:27:45;;;;;;;39.67;19.80;;;-1.20;13.70;;;;;;5009144;28;20440;-72
2022/12/12 03:30:13;;;;;;;40.40;19.77;;;-1.10;12.70;;;;;;5008461;28;20425;-72
2022/12/12 03:32:46;;;;;;;43.13;21.17;;;-0.90;11.10;;;;;;5008175;28;20464;-72
2022/12/12 03:35:27;;;;;;;39.90;19.20;;;-1.10;8.80;;;;;;5009578;28;20789;-72
2022/12/12 03:37:59;;;;;;;43.77;20.67;;;-1.10;6.70;;;;;;5003885;28;20441;-72
2022/12/12 03:40:42;;;;;;;43.03;20.97;;;-1.20;6.00;;;;;;5010380;28;20417;-72
2022/12/12 03:43:21;;;;;;;39.57;19.43;;;-1.20;5.30;;;;;;5004926;28;20458;-72
2022/12/12 03:46:22;;;;;;;54.67;23.07;;;-1.20;6.90;;;;;;5007574;28;20478;-72
2022/12/12 03:48:53;;;;;;;50.03;22.77;;;-1.30;5.30;;;;;;5008523;28;20414;-72
2022/12/12 03:51:29;;;;;;;47.57;21.53;;;-0.80;7.30;;;;;;5007988;28;20447;-72
2022/12/12 03:54:16;;;;;;;44.27;21.13;;;-1.40;6.70;;;;;;5007920;28;20444;-72
2022/12/12 03:56:46;;;;;;;43.40;20.10;;;-1.40;8.50;;;;;;5009597;28;20428;-73
2022/12/12 03:59:31;;;;;;;39.70;19.67;;;-1.50;8.10;;;;;;5009059;28;20414;-72
2022/12/12 04:02:03;;;;;;;44.20;20.40;;;-1.50;7.70;;;;;;5008353;28;20457;-72
2022/12/12 04:04:33;;;;;;;40.17;20.13;;;-1.50;6.80;;;;;;5009275;28;20469;-72
2022/12/12 04:07:02;;;;;;;50.83;20.60;;;-1.40;7.30;;;;;;5009148;28;20498;-72
2022/12/12 04:12:57;;;;;;;42.43;19.70;;;-1.30;7.90;;;;;;5006797;28;20416;-72
2022/12/12 04:15:47;;;;;;;41.70;20.37;;;-1.10;10.50;;;;;;5003406;28;21890;-72
2022/12/12 04:18:24;;;;;;;38.23;18.83;;;-0.90;8.00;;;;;;5010144;28;20484;-72
2022/12/12 04:24:42;;;;;;;46.67;21.70;;;-0.70;7.80;;;;;;5009364;28;20431;-72
2022/12/12 04:27:16;;;;;;;45.70;20.50;;;-0.60;5.40;;;;;;4968801;28;20479;-69
2022/12/12 04:29:52;;;;;;;46.63;22.00;;;-0.50;5.10;;;;;;5002502;28;20788;-72
2022/12/12 04:32:41;;;;;;;44.47;20.47;;;-0.50;3.10;;;;;;5006795;28;20462;-72
2022/12/12 04:35:21;;;;;;;40.57;20.10;;;-0.40;1.40;;;;;;5001773;28;20445;-72
2022/12/12 04:37:49;;;;;;;44.20;21.17;;;-0.40;1.70;;;;;;5008944;28;20435;-72
2022/12/12 04:40:26;;;;;;;46.20;21.30;;;-0.30;1.00;;;;;;5008762;28;20417;-72
2022/12/12 04:43:09;;;;;;;47.23;21.83;;;-0.30;1.00;;;;;;5021874;28;20449;-72
2022/12/12 04:45:51;;;;;;;43.03;21.43;;;-0.30;1.00;;;;;;5008238;28;20453;-72
2022/12/12 04:48:25;;;;;;;44.90;21.20;;;-0.30;1.00;;;;;;5002690;28;20502;-71
2022/12/12 04:50:52;;;;;;;38.83;20.03;;;-0.40;1.00;;;;;;5007187;28;20437;-72
2022/12/12 04:53:23;;;;;;;44.40;20.83;;;-0.40;1.00;;;;;;5010720;28;20491;-72
2022/12/12 04:55:54;;;;;;;42.17;20.37;;;-0.40;1.00;;;;;;5012067;28;20440;-73
2022/12/12 04:58:20;;;;;;;42.37;19.90;;;-0.40;1.00;;;;;;5012819;28;20781;-72
2022/12/12 05:01:10;;;;;;;45.50;21.97;;;-0.50;1.00;;;;;;5011599;28;20484;-72
2022/12/12 05:03:52;;;;;;;41.63;19.80;;;-0.50;1.70;;;;;;5012959;28;20439;-72
2022/12/12 05:06:29;;;;;;;42.50;19.37;;;-0.60;2.80;;;;;;5010801;28;21038;-72
2022/12/12 05:08:56;;;;;;;41.23;19.97;;;-0.60;3.30;;;;;;5015335;28;20409;-72
2022/12/12 05:11:22;;;;;;;46.83;20.53;;;-0.60;2.80;;;;;;5010122;28;20442;-72
2022/12/12 05:13:49;;;;;;;43.73;21.40;;;-0.70;3.30;;;;;;5010630;28;20490;-72
2022/12/12 05:16:22;;;;;;;44.77;20.33;;;-0.80;3.10;;;;;;5010609;28;20437;-72
2022/12/12 05:18:48;;;;;;;40.03;19.97;;;-0.80;6.50;;;;;;5012506;28;20421;-73
2022/12/12 05:21:14;;;;;;;45.43;20.90;;;-0.70;6.60;;;;;;5009873;28;20484;-72
2022/12/12 05:23:40;;;;;;;41.40;20.30;;;-0.50;8.70;;;;;;5012426;28;20199;-72
2022/12/12 05:26:18;;;;;;;41.70;20.77;;;-0.90;5.30;;;;;;5011688;28;20472;-72
2022/12/12 05:28:43;;;;;;;42.50;20.30;;;-0.90;5.40;;;;;;5004730;28;20167;-72
2022/12/12 05:31:09;;;;;;;43.77;19.77;;;-0.90;6.30;;;;;;5008348;28;20499;-72
2022/12/12 05:33:34;;;;;;;39.93;19.63;;;-0.90;6.10;;;;;;5011804;28;20206;-72
2022/12/12 05:36:00;;;;;;;42.23;19.93;;;-0.50;6.80;;;;;;5010369;28;20249;-71
2022/12/12 05:38:25;;;;;;;43.70;19.03;;;-1.00;5.40;;;;;;5017071;28;20707;-72
2022/12/12 05:40:51;;;;;;;45.93;21.60;;;-1.00;5.40;;;;;;5014413;28;20576;-72
2022/12/12 05:43:16;;;;;;;43.00;20.27;;;-1.00;7.30;;;;;;5014098;28;20726;-71
2022/12/12 05:45:42;;;;;;;38.00;20.13;;;-1.00;8.80;;;;;;5010714;28;20202;-72
2022/12/12 05:48:07;;;;;;;40.93;17.80;;;-0.80;8.80;;;;;;5010521;28;20265;-72
2022/12/12 05:50:33;;;;;;;45.67;21.07;;;-0.80;6.50;;;;;;5011104;28;20194;-72
2022/12/12 05:52:58;;;;;;;41.33;20.37;;;-0.80;5.90;;;;;;5010807;28;20229;-71
2022/12/12 05:55:24;;;;;;;46.23;21.23;;;-0.30;6.60;;;;;;5010119;28;20179;-72
2022/12/12 05:57:50;;;;;;;41.30;20.37;;;-0.50;6.40;;;;;;5010732;28;20255;-72
2022/12/12 06:00:15;;;;;;;48.30;22.40;;;-0.50;4.10;;;;;;5010233;28;20187;-72
2022/12/12 06:02:41;;;;;;;43.10;21.20;;;-0.50;3.90;;;;;;5008589;28;20194;-72
2022/12/12 06:05:07;;;;;;;44.17;21.20;;;-0.40;4.30;;;;;;5010057;28;20257;-71
2022/12/12 06:07:32;;;;;;;41.97;20.37;;;-0.40;3.00;;;;;;5010903;28;20269;-71
2022/12/12 06:09:58;;;;;;;41.30;20.10;;;-0.30;2.50;;;;;;5011033;28;20244;-72
2022/12/12 06:12:23;;;;;;;47.33;21.10;;;-0.40;1.70;;;;;;5009415;28;20205;-72
2022/12/12 06:14:49;;;;;;;45.57;20.87;;;-0.40;3.60;;;;;;5010292;28;20607;-72
2022/12/12 06:17:14;;;;;;;49.17;22.43;;;-0.30;1.20;;;;;;5011064;28;20183;-72
2022/12/12 06:19:41;;;;;;;42.57;20.83;;;-0.40;1.30;;;;;;5009228;28;20208;-72
2022/12/12 06:22:06;;;;;;;43.87;21.53;;;-0.40;2.20;;;;;;5010463;28;20198;-72
2022/12/12 06:24:32;;;;;;;46.87;21.13;;;-0.40;2.80;;;;;;5010272;28;20955;-72
2022/12/12 06:26:57;;;;;;;42.40;21.27;;;-0.40;2.00;;;;;;5011049;28;20215;-72
2022/12/12 06:29:23;;;;;;;41.47;20.33;;;-0.30;3.90;;;;;;5006682;28;20515;-71
2022/12/12 06:31:48;;;;;;;42.47;20.37;;;-0.30;2.70;;;;;;5008865;28;20171;-72
2022/12/12 06:34:14;;;;;;;45.30;21.67;;;-0.30;1.40;;;;;;5011283;28;20450;-70
2022/12/12 06:36:40;;;;;;;45.20;22.07;;;-0.30;1.80;;;;;;5008059;28;20183;-72
2022/12/12 06:39:06;;;;;;;47.37;22.33;;;-0.30;1.80;;;;;;5008970;28;20538;-72
2022/12/12 06:41:32;;;;;;;41.17;19.50;;;-0.10;2.80;;;;;;5008321;28;20277;-72
2022/12/12 06:43:58;;;;;;;47.40;21.50;;;-0.30;1.00;;;;;;5008733;28;20198;-72
2022/12/12 06:46:26;;;;;;;44.07;21.53;;;-0.30;1.00;;;;;;5010580;28;20454;-72
2022/12/12 06:48:53;;;;;;;43.20;20.60;;;-0.30;1.00;;;;;;5008841;28;20445;-72
2022/12/12 06:51:25;;;;;;;47.90;20.73;;;-0.30;1.00;;;;;;5008873;28;20429;-69
2022/12/12 06:53:51;;;;;;;48.07;22.87;;;-0.30;1.00;;;;;;5007776;28;20995;-72
2022/12/12 06:56:20;;;;;;;46.80;23.63;;;-0.20;1.00;;;;;;5010998;28;20501;-72
2022/12/12 06:58:46;;;;;;;48.60;23.03;;;-0.20;1.00;;;;;;5006646;28;20517;-72
2022/12/12 07:01:18;;;;;;;45.60;22.20;;;0.10;1.00;;;;;;5013378;28;20928;-72
2022/12/12 07:03:44;;;;;;;41.40;20.50;;;-0.10;1.00;;;;;;5010477;28;20473;-72
2022/12/12 07:06:09;;;;;;;44.03;21.23;;;-0.10;1.00;;;;;;5006650;28;20500;-72
2022/12/12 07:08:35;;;;;;;42.00;21.10;;;-0.10;1.00;;;;;;5008603;28;20175;-70
2022/12/12 07:11:11;;;;;;;43.20;20.50;;;-0.10;1.00;;;;;;5008745;28;20175;-70
2022/12/12 07:13:36;;;;;;;43.07;20.47;;;-0.10;1.00;;;;;;5008113;28;20461;-72
2022/12/12 07:16:02;;;;;;;48.07;22.80;;;-0.20;1.00;;;;;;5009191;28;20508;-72
2022/12/12 07:18:28;;;;;;;55.70;23.93;;;-0.20;1.00;;;;;;5009172;28;20178;-71
2022/12/12 07:21:14;;;;;;;45.03;22.10;;;-0.20;1.00;;;;;;5008986;28;20257;-69
2022/12/12 07:23:39;;;;;;;39.73;20.00;;;-0.20;1.00;;;;;;5006780;28;20293;-72
